createdAt,value
2023-05-06T00:01:05.853Z,2.90
2023-05-06T00:03:32.760Z,3.17
2023-05-06T00:05:59.649Z,2.92
2023-05-06T00:08:26.300Z,3.08
2023-05-06T00:10:52.921Z,3.13
2023-05-06T00:13:19.727Z,3.40
2023-05-06T00:15:46.513Z,3.15
2023-05-06T00:18:15.046Z,2.50
2023-05-06T00:20:42.015Z,2.75
2023-05-06T00:23:08.833Z,2.90
2023-05-06T00:25:35.710Z,2.70
2023-05-06T00:28:02.380Z,2.45
2023-05-06T00:30:29.180Z,2.97
2023-05-06T00:32:56.182Z,3.05
2023-05-06T00:35:22.979Z,3.20
2023-05-06T00:38:07.852Z,2.35
2023-05-06T00:40:34.581Z,2.88
2023-05-06T00:43:01.405Z,3.28
2023-05-06T00:45:28.172Z,2.83
2023-05-06T00:47:55.216Z,2.78
2023-05-06T00:50:22.636Z,3.05
2023-05-06T00:52:49.892Z,2.97
2023-05-06T00:55:17.003Z,2.97
2023-05-06T00:57:43.803Z,3.42
2023-05-06T01:00:11.919Z,3.40
2023-05-06T01:02:47.069Z,3.28
2023-05-06T01:05:20.963Z,2.75
2023-05-06T01:07:58.818Z,3.08
2023-05-06T01:10:32.353Z,3.60
2023-05-06T01:13:19.747Z,3.80
2023-05-06T01:15:48.093Z,3.45
2023-05-06T01:18:17.597Z,3.85
2023-05-06T01:20:52.177Z,4.22
2023-05-06T01:23:19.038Z,3.45
2023-05-06T01:25:46.010Z,3.50
2023-05-06T01:28:13.703Z,3.42
2023-05-06T01:30:52.498Z,3.03
2023-05-06T01:33:45.435Z,3.63
2023-05-06T01:36:37.894Z,4.43
2023-05-06T01:39:07.546Z,4.30
2023-05-06T01:41:34.885Z,3.80
2023-05-06T01:44:01.939Z,4.20
2023-05-06T01:46:29.974Z,3.78
2023-05-06T01:48:57.140Z,3.78
2023-05-06T01:51:23.978Z,4.18
2023-05-06T01:53:50.734Z,3.10
2023-05-06T01:56:17.770Z,2.80
2023-05-06T01:58:44.478Z,3.83
2023-05-06T02:01:11.193Z,3.50
2023-05-06T02:03:38.006Z,3.30
2023-05-06T02:06:04.925Z,4.03
2023-05-06T02:08:31.622Z,4.30
2023-05-06T02:10:58.307Z,3.45
2023-05-06T02:13:25.025Z,3.55
2023-05-06T02:15:55.161Z,3.85
2023-05-06T02:18:22.254Z,3.75
2023-05-06T02:20:48.970Z,3.60
2023-05-06T02:23:15.959Z,3.28
2023-05-06T02:25:42.939Z,3.78
2023-05-06T02:28:09.652Z,3.60
2023-05-06T02:30:36.702Z,3.63
2023-05-06T02:33:03.583Z,3.45
2023-05-06T02:35:30.386Z,3.50
2023-05-06T02:37:57.079Z,3.50
2023-05-06T02:40:23.817Z,2.90
2023-05-06T02:42:50.568Z,2.85
2023-05-06T02:45:17.306Z,3.05
2023-05-06T02:47:44.052Z,3.17
2023-05-06T02:50:11.144Z,3.80
2023-05-06T02:52:37.968Z,4.30
2023-05-06T02:55:05.883Z,2.63
2023-05-06T02:57:32.621Z,3.40
2023-05-06T02:59:59.331Z,3.60
2023-05-06T03:02:26.126Z,3.08
2023-05-06T03:04:52.851Z,3.15
2023-05-06T03:07:19.954Z,3.63
2023-05-06T03:09:46.723Z,3.85
2023-05-06T03:12:13.400Z,4.47
2023-05-06T03:14:40.120Z,4.03
2023-05-06T03:17:06.823Z,3.60
2023-05-06T03:19:33.548Z,3.45
2023-05-06T03:22:00.233Z,3.08
2023-05-06T03:24:26.828Z,3.75
2023-05-06T03:26:53.555Z,4.28
2023-05-06T03:29:20.424Z,3.33
2023-05-06T03:31:50.810Z,3.83
2023-05-06T03:34:17.557Z,3.00
2023-05-06T03:36:44.297Z,4.10
2023-05-06T03:39:11.052Z,2.92
2023-05-06T03:41:37.933Z,3.35
2023-05-06T03:44:04.892Z,3.50
2023-05-06T03:46:31.688Z,4.03
2023-05-06T03:49:00.775Z,2.67
2023-05-06T03:51:27.754Z,3.78
2023-05-06T03:53:55.011Z,4.03
2023-05-06T03:56:22.690Z,2.85
2023-05-06T03:58:49.390Z,2.88
2023-05-06T04:01:18.216Z,3.10
2023-05-06T04:03:45.118Z,3.25
2023-05-06T04:06:11.873Z,2.92
2023-05-06T04:08:38.786Z,3.20
2023-05-06T04:11:06.549Z,4.10
2023-05-06T04:13:34.642Z,2.50
2023-05-06T04:16:01.742Z,2.95
2023-05-06T04:18:28.431Z,3.17
2023-05-06T04:20:55.128Z,4.07
2023-05-06T04:23:22.108Z,3.72
2023-05-06T04:25:49.433Z,4.15
2023-05-06T04:28:16.729Z,4.30
2023-05-06T04:30:44.361Z,3.67
2023-05-06T04:33:11.203Z,3.55
2023-05-06T04:35:38.722Z,5.45
2023-05-06T04:38:06.240Z,3.33
2023-05-06T04:40:35.431Z,4.80
2023-05-06T04:43:03.036Z,3.78
2023-05-06T04:45:30.143Z,3.53
2023-05-06T04:47:56.974Z,2.65
2023-05-06T04:50:23.829Z,2.30
2023-05-06T04:52:50.755Z,3.42
2023-05-06T04:55:17.707Z,3.05
2023-05-06T04:57:44.637Z,3.83
2023-05-06T05:00:11.945Z,4.05
2023-05-06T05:02:38.955Z,4.53
2023-05-06T05:05:06.204Z,2.88
2023-05-06T05:07:32.947Z,2.92
2023-05-06T05:09:59.838Z,2.85
2023-05-06T05:12:26.872Z,2.60
2023-05-06T05:14:53.692Z,2.53
2023-05-06T05:17:20.728Z,2.65
2023-05-06T05:19:47.558Z,4.22
2023-05-06T05:22:14.616Z,3.20
2023-05-06T05:24:41.772Z,4.38
2023-05-06T05:27:08.749Z,4.95
2023-05-06T05:29:35.834Z,2.75
2023-05-06T05:32:02.882Z,2.40
2023-05-06T05:34:30.310Z,2.33
2023-05-06T05:36:58.369Z,2.90
2023-05-06T05:39:25.644Z,2.30
2023-05-06T05:41:52.911Z,3.13
2023-05-06T05:44:20.089Z,2.63
2023-05-06T05:46:47.419Z,6.35
2023-05-06T05:49:14.707Z,3.22
2023-05-06T05:51:44.066Z,3.65
2023-05-06T05:54:11.257Z,3.35
2023-05-06T05:56:38.616Z,3.35
2023-05-06T05:59:07.450Z,3.53
2023-05-06T06:01:37.336Z,3.17
2023-05-06T06:04:07.496Z,2.65
2023-05-06T06:06:34.963Z,2.75
2023-05-06T06:09:08.200Z,2.10
2023-05-06T06:11:35.721Z,2.38
2023-05-06T06:14:04.023Z,2.40
2023-05-06T06:16:31.295Z,2.00
2023-05-06T06:18:59.903Z,1.92
2023-05-06T06:21:27.994Z,3.10
2023-05-06T06:23:56.390Z,3.15
2023-05-06T06:26:23.472Z,3.25
2023-05-06T06:28:50.761Z,2.33
2023-05-06T06:31:17.966Z,2.13
2023-05-06T06:33:45.118Z,2.42
2023-05-06T06:36:11.950Z,1.73
2023-05-06T06:38:39.035Z,2.13
2023-05-06T06:41:06.159Z,2.00
2023-05-06T06:43:33.369Z,1.90
2023-05-06T06:46:01.126Z,2.13
2023-05-06T06:48:30.963Z,2.10
2023-05-06T06:50:58.262Z,2.55
2023-05-06T06:53:29.181Z,2.60
2023-05-06T06:55:56.621Z,2.50
2023-05-06T06:58:30.157Z,2.47
2023-05-06T07:00:59.983Z,2.40
2023-05-06T07:03:29.412Z,2.25
2023-05-06T07:05:56.992Z,2.75
2023-05-06T07:08:25.274Z,2.17
2023-05-06T07:10:52.345Z,2.33
2023-05-06T07:13:20.913Z,2.50
2023-05-06T07:15:52.166Z,2.33
2023-05-06T07:20:48.155Z,2.72
2023-05-06T07:23:16.768Z,3.08
2023-05-06T07:25:43.922Z,3.22
2023-05-06T07:28:11.172Z,3.08
2023-05-06T07:30:39.437Z,3.33
2023-05-06T07:33:08.130Z,3.38
2023-05-06T07:35:42.174Z,3.00
2023-05-06T07:38:24.438Z,3.20
2023-05-06T07:43:47.580Z,3.58
2023-05-06T07:46:15.212Z,3.50
2023-05-06T07:48:43.117Z,3.35
2023-05-06T07:51:10.637Z,3.60
2023-05-06T07:53:40.710Z,3.30
2023-05-06T07:56:08.404Z,3.22
2023-05-06T07:58:36.363Z,3.60
2023-05-06T08:01:03.846Z,3.70
2023-05-06T08:03:33.159Z,3.13
2023-05-06T08:06:01.133Z,2.95
2023-05-06T08:08:28.459Z,3.13
2023-05-06T08:10:59.437Z,3.40
2023-05-06T08:13:29.083Z,3.30
2023-05-06T08:15:56.561Z,3.35
2023-05-06T08:18:24.040Z,3.72
2023-05-06T08:20:51.659Z,3.78
2023-05-06T08:23:20.352Z,3.65
2023-05-06T08:25:50.176Z,3.50
2023-05-06T08:28:17.395Z,4.22
2023-05-06T08:30:49.355Z,4.03
2023-05-06T08:33:16.839Z,4.13
2023-05-06T08:35:45.295Z,3.60
2023-05-06T08:38:12.543Z,3.90
2023-05-06T08:40:43.766Z,3.40
2023-05-06T08:45:44.754Z,3.45
2023-05-06T08:48:14.943Z,4.35
2023-05-06T08:50:45.647Z,4.18
2023-05-06T08:53:13.921Z,3.88
2023-05-06T08:55:44.831Z,4.10
2023-05-06T08:58:16.032Z,3.80
2023-05-06T09:00:43.570Z,4.60
2023-05-06T09:03:10.832Z,4.03
2023-05-06T09:05:38.035Z,3.92
2023-05-06T09:08:05.183Z,3.88
2023-05-06T09:10:33.624Z,3.75
2023-05-06T09:13:02.722Z,3.58
2023-05-06T09:15:48.870Z,4.13
2023-05-06T09:18:18.746Z,3.55
2023-05-06T09:20:49.654Z,3.70
2023-05-06T09:23:18.114Z,4.18
2023-05-06T09:25:46.330Z,3.80
2023-05-06T09:28:14.181Z,3.88
2023-05-06T09:30:45.103Z,2.95
2023-05-06T09:33:12.704Z,3.25
2023-05-06T09:35:42.165Z,2.67
2023-05-06T09:38:09.492Z,2.20
2023-05-06T09:40:36.742Z,1.95
2023-05-06T09:43:04.574Z,2.03
2023-05-06T09:45:31.836Z,1.65
2023-05-06T09:47:59.361Z,1.80
2023-05-06T09:50:31.898Z,1.42
2023-05-06T09:53:01.177Z,1.80
2023-05-06T09:55:29.063Z,1.63
2023-05-06T09:57:57.138Z,1.30
2023-05-06T10:00:31.756Z,1.52
2023-05-06T10:02:59.742Z,1.20
2023-05-06T10:05:28.714Z,1.00
2023-05-06T10:07:57.558Z,1.20
2023-05-06T10:10:25.606Z,1.30
2023-05-06T10:12:53.339Z,1.48
2023-05-06T10:15:22.275Z,1.40
2023-05-06T10:17:50.899Z,0.95
2023-05-06T10:20:18.240Z,1.10
2023-05-06T10:22:57.848Z,1.00
2023-05-06T10:25:39.820Z,1.00
2023-05-06T10:28:15.425Z,0.90
2023-05-06T10:30:56.827Z,0.82
2023-05-06T10:33:24.995Z,0.80
2023-05-06T10:36:16.570Z,0.80
2023-05-06T10:38:45.814Z,0.60
2023-05-06T10:41:15.338Z,0.50
2023-05-06T10:43:44.188Z,0.35
2023-05-06T10:46:16.147Z,0.70
2023-05-06T10:49:05.170Z,0.60
2023-05-06T10:51:38.034Z,0.50
2023-05-06T10:54:22.174Z,0.60
2023-05-06T10:56:50.085Z,0.50
2023-05-06T10:59:29.497Z,0.40
2023-05-06T11:02:09.704Z,0.50
2023-05-06T11:04:37.864Z,0.17
2023-05-06T11:07:13.052Z,0.70
2023-05-06T11:10:15.924Z,0.30
2023-05-06T11:12:50.458Z,0.40
2023-05-06T11:15:28.880Z,0.15
2023-05-06T11:17:58.743Z,0.20
2023-05-06T11:20:27.406Z,0.33
2023-05-06T11:22:55.197Z,0.30
2023-05-06T11:25:41.944Z,0.30
2023-05-06T11:28:14.146Z,0.20
2023-05-06T11:30:43.731Z,0.20
2023-05-06T11:33:23.249Z,0.30
2023-05-06T11:35:52.225Z,0.40
2023-05-06T11:38:20.802Z,0.40
2023-05-06T11:40:58.122Z,0.30
2023-05-06T11:43:26.082Z,0.20
2023-05-06T11:45:54.945Z,0.38
2023-05-06T11:48:22.204Z,0.40
2023-05-06T11:50:52.014Z,0.30
2023-05-06T11:53:30.515Z,0.30
2023-05-06T11:56:00.961Z,0.40
2023-05-06T11:58:29.411Z,0.30
2023-05-06T12:00:57.953Z,0.20
2023-05-06T12:03:26.293Z,0.30
2023-05-06T12:05:54.094Z,0.22
2023-05-06T12:08:34.652Z,0.55
2023-05-06T12:13:30.406Z,0.30
2023-05-06T12:16:00.062Z,0.30
2023-05-06T12:18:27.776Z,0.30
2023-05-06T12:20:55.516Z,0.50
2023-05-06T12:23:22.649Z,0.22
2023-05-06T12:26:06.894Z,0.50
2023-05-06T12:28:36.242Z,0.40
2023-05-06T12:31:19.728Z,0.30
2023-05-06T12:33:49.302Z,0.20
2023-05-06T12:36:16.629Z,0.30
2023-05-06T12:39:01.156Z,0.30
2023-05-06T12:41:46.845Z,0.65
2023-05-06T12:44:37.107Z,0.20
2023-05-06T12:47:07.860Z,0.30
2023-05-06T12:52:23.717Z,0.20
2023-05-06T12:54:55.235Z,0.30
2023-05-06T12:57:22.695Z,0.20
2023-05-06T12:59:50.231Z,0.25
2023-05-06T13:02:17.515Z,0.20
2023-05-06T13:04:45.370Z,0.30
2023-05-06T13:07:12.458Z,0.20
2023-05-06T13:09:39.360Z,0.30
2023-05-06T13:12:07.499Z,0.22
2023-05-06T13:14:35.219Z,0.25
2023-05-06T13:17:04.983Z,0.30
2023-05-06T13:19:33.221Z,0.60
2023-05-06T13:22:01.489Z,0.25
2023-05-06T13:24:29.057Z,0.32
2023-05-06T13:26:57.511Z,0.22
2023-05-06T13:29:24.941Z,0.38
2023-05-06T13:31:52.154Z,0.20
2023-05-06T13:34:19.182Z,0.20
2023-05-06T13:36:47.887Z,0.22
2023-05-06T13:39:14.740Z,0.30
2023-05-06T13:41:41.918Z,0.20
2023-05-06T13:44:08.930Z,0.30
2023-05-06T13:46:35.839Z,0.30
2023-05-06T13:49:02.584Z,0.30
2023-05-06T13:51:32.845Z,0.30
2023-05-06T13:53:59.897Z,0.28
2023-05-06T13:56:27.167Z,0.30
2023-05-06T13:58:54.212Z,0.15
2023-05-06T14:01:22.198Z,0.30
2023-05-06T14:03:49.561Z,0.30
2023-05-06T14:06:16.782Z,0.20
2023-05-06T14:08:45.101Z,0.35
2023-05-06T14:11:12.585Z,0.20
2023-05-06T14:13:40.107Z,0.30
2023-05-06T14:16:07.681Z,0.22
2023-05-06T14:18:35.003Z,0.20
2023-05-06T14:21:02.175Z,0.20
2023-05-06T14:23:29.372Z,0.35
2023-05-06T14:25:56.371Z,0.20
2023-05-06T14:28:23.803Z,0.20
2023-05-06T14:30:51.624Z,0.30
2023-05-06T14:33:18.677Z,0.20
2023-05-06T14:35:46.409Z,0.40
2023-05-06T14:38:13.387Z,0.30
2023-05-06T14:40:40.632Z,0.20
2023-05-06T14:43:08.162Z,0.50
2023-05-06T14:45:35.332Z,0.38
2023-05-06T14:48:03.029Z,0.40
2023-05-06T14:50:31.340Z,0.30
2023-05-06T14:52:58.607Z,0.40
2023-05-06T14:55:26.067Z,0.40
2023-05-06T14:57:53.238Z,0.30
2023-05-06T15:00:20.733Z,0.30
2023-05-06T15:02:48.128Z,0.40
2023-05-06T15:05:15.739Z,0.30
2023-05-06T15:07:42.928Z,0.50
2023-05-06T15:10:10.472Z,0.60
2023-05-06T15:12:37.806Z,0.47
2023-05-06T15:15:05.573Z,0.30
2023-05-06T15:17:32.921Z,0.47
2023-05-06T15:20:00.512Z,0.30
2023-05-06T15:22:28.042Z,0.40
2023-05-06T15:24:55.380Z,0.30
2023-05-06T15:27:22.702Z,0.57
2023-05-06T15:29:49.987Z,0.30
2023-05-06T15:32:17.172Z,0.38
2023-05-06T15:34:44.861Z,0.50
2023-05-06T15:37:12.490Z,0.20
2023-05-06T15:39:39.759Z,0.30
2023-05-06T15:42:06.890Z,0.40
2023-05-06T15:44:34.838Z,0.43
2023-05-06T15:47:01.845Z,0.80
2023-05-06T15:52:00.615Z,0.43
2023-05-06T15:54:28.171Z,1.08
2023-05-06T15:56:56.809Z,0.65
2023-05-06T15:59:23.674Z,0.98
2023-05-06T16:02:25.460Z,0.93
2023-05-06T16:04:37.233Z,0.75
2023-05-06T16:07:03.926Z,0.40
2023-05-06T16:09:30.648Z,0.50
2023-05-06T16:11:57.282Z,0.50
2023-05-06T16:14:23.946Z,0.82
2023-05-06T16:16:50.582Z,0.60
2023-05-06T16:19:17.616Z,0.90
2023-05-06T16:21:44.282Z,0.90
2023-05-06T16:24:10.984Z,0.90
2023-05-06T16:26:37.767Z,0.70
2023-05-06T16:29:04.354Z,0.93
2023-05-06T16:31:31.610Z,0.65
2023-05-06T16:33:58.200Z,0.60
2023-05-06T16:36:24.856Z,1.17
2023-05-06T16:38:51.456Z,1.65
2023-05-06T16:41:18.013Z,1.42
2023-05-06T16:43:44.630Z,1.08
2023-05-06T16:46:11.296Z,1.42
2023-05-06T16:48:37.972Z,1.90
2023-05-06T16:51:04.911Z,1.90
2023-05-06T16:53:31.503Z,1.63
2023-05-06T16:55:58.249Z,1.60
2023-05-06T16:58:24.907Z,1.52
2023-05-06T17:00:54.412Z,1.58
2023-05-06T17:03:21.398Z,1.05
2023-05-06T17:05:48.058Z,1.10
2023-05-06T17:08:16.084Z,1.10
2023-05-06T17:10:43.571Z,0.98
2023-05-06T17:13:10.501Z,1.00
2023-05-06T17:15:37.185Z,1.08
2023-05-06T17:18:04.004Z,0.68
2023-05-06T17:20:31.273Z,0.70
2023-05-06T17:22:58.086Z,0.60
2023-05-06T17:25:24.734Z,0.70
2023-05-06T17:27:51.437Z,0.68
2023-05-06T17:30:18.115Z,0.80
2023-05-06T17:32:44.900Z,1.15
2023-05-06T17:35:12.078Z,1.63
2023-05-06T17:37:39.387Z,1.67
2023-05-06T17:40:07.611Z,1.30
2023-05-06T17:42:34.556Z,0.90
2023-05-06T17:45:01.249Z,0.70
2023-05-06T17:47:30.236Z,1.05
2023-05-06T17:49:57.147Z,1.25
2023-05-06T17:52:26.965Z,1.00
2023-05-06T17:55:16.539Z,0.85
2023-05-06T17:57:40.838Z,1.30
2023-05-06T18:00:09.308Z,1.10
2023-05-06T18:02:36.347Z,1.98
2023-05-06T18:05:03.049Z,2.20
2023-05-06T18:07:29.855Z,2.25
2023-05-06T18:09:56.534Z,2.03
2023-05-06T18:12:24.015Z,1.80
2023-05-06T18:14:50.737Z,1.50
2023-05-06T18:17:17.677Z,1.83
2023-05-06T18:19:44.529Z,1.65
2023-05-06T18:22:11.240Z,1.30
2023-05-06T18:24:38.278Z,1.17
2023-05-06T18:27:04.984Z,1.02
2023-05-06T18:29:33.244Z,1.10
2023-05-06T18:32:01.540Z,1.45
2023-05-06T18:34:28.308Z,1.20
2023-05-06T18:36:54.977Z,1.27
2023-05-06T18:39:23.115Z,0.90
2023-05-06T18:41:49.772Z,1.45
2023-05-06T18:44:16.430Z,1.15
2023-05-06T18:46:43.027Z,1.15
2023-05-06T18:49:09.663Z,1.10
2023-05-06T18:51:36.940Z,1.00
2023-05-06T18:54:03.612Z,1.13
2023-05-06T18:56:30.267Z,1.20
2023-05-06T18:58:57.323Z,1.38
2023-05-06T19:01:25.184Z,2.10
2023-05-06T19:03:52.047Z,1.55
2023-05-06T19:06:18.778Z,1.80
2023-05-06T19:08:45.440Z,1.42
2023-05-06T19:11:16.468Z,2.17
2023-05-06T19:13:46.653Z,1.98
2023-05-06T19:16:14.061Z,2.35
2023-05-06T19:18:40.964Z,1.90
2023-05-06T19:21:11.423Z,1.90
2023-05-06T19:23:38.287Z,1.63
2023-05-06T19:26:06.802Z,1.70
2023-05-06T19:28:34.451Z,1.98
2023-05-06T19:31:01.428Z,2.88
2023-05-06T19:33:28.370Z,1.88
2023-05-06T19:35:55.064Z,1.83
2023-05-06T19:38:21.691Z,1.63
2023-05-06T19:40:48.600Z,1.63
2023-05-06T19:43:15.422Z,1.70
2023-05-06T19:45:42.284Z,1.52
2023-05-06T19:48:09.074Z,1.60
2023-05-06T19:50:36.701Z,1.58
2023-05-06T19:53:03.529Z,1.40
2023-05-06T19:55:30.969Z,1.42
2023-05-06T19:57:57.784Z,1.58
2023-05-06T20:00:27.286Z,2.20
2023-05-06T20:02:56.564Z,1.80
2023-05-06T20:05:23.831Z,1.85
2023-05-06T20:07:51.026Z,2.15
2023-05-06T20:10:17.745Z,1.95
2023-05-06T20:12:44.576Z,2.20
2023-05-06T20:15:11.739Z,2.28
2023-05-06T20:17:38.862Z,1.90
2023-05-06T20:20:10.021Z,2.35
2023-05-06T20:22:37.740Z,1.67
2023-05-06T20:25:11.643Z,2.40
2023-05-06T20:27:39.257Z,1.98
2023-05-06T20:30:08.059Z,2.20
2023-05-06T20:32:34.935Z,2.00
2023-05-06T20:35:01.847Z,1.95
2023-05-06T20:37:28.845Z,1.73
2023-05-06T20:39:55.506Z,1.77
2023-05-06T20:42:22.193Z,1.52
2023-05-06T20:44:50.874Z,1.77
2023-05-06T20:47:17.601Z,1.98
2023-05-06T20:49:44.312Z,1.50
2023-05-06T20:52:14.601Z,1.58
2023-05-06T20:54:42.763Z,1.60
2023-05-06T20:57:09.845Z,1.48
2023-05-06T20:59:36.634Z,1.35
2023-05-06T21:02:03.450Z,1.95
2023-05-06T21:04:30.609Z,1.60
2023-05-06T21:06:57.555Z,1.75
2023-05-06T21:09:24.848Z,1.67
2023-05-06T21:11:51.526Z,1.75
2023-05-06T21:14:18.946Z,1.90
2023-05-06T21:16:45.686Z,2.03
2023-05-06T21:19:12.343Z,1.77
2023-05-06T21:21:39.068Z,1.55
2023-05-06T21:24:05.986Z,1.77
2023-05-06T21:26:32.893Z,2.00
2023-05-06T21:28:59.544Z,1.75
2023-05-06T21:31:26.938Z,1.92
2023-05-06T21:33:58.323Z,2.28
2023-05-06T21:39:09.526Z,1.83
2023-05-06T21:41:36.452Z,1.70
2023-05-06T21:44:04.461Z,2.10
2023-05-06T21:46:32.027Z,1.98
2023-05-06T21:48:59.364Z,2.67
2023-05-06T21:51:32.404Z,2.10
2023-05-06T21:53:59.183Z,2.22
2023-05-06T21:56:25.949Z,2.13
2023-05-06T21:58:53.299Z,1.80
2023-05-06T22:01:20.009Z,2.75
2023-05-06T22:03:48.083Z,2.08
2023-05-06T22:06:15.718Z,2.10
2023-05-06T22:08:42.478Z,1.85
2023-05-06T22:11:09.179Z,2.13
2023-05-06T22:13:36.293Z,2.55
2023-05-06T22:16:03.081Z,2.40
2023-05-06T22:18:30.182Z,2.55
2023-05-06T22:20:56.920Z,2.70
2023-05-06T22:23:24.526Z,2.50
2023-05-06T22:25:54.444Z,2.80
2023-05-06T22:28:21.702Z,2.65
2023-05-06T22:30:48.431Z,2.47
2023-05-06T22:33:15.192Z,2.80
2023-05-06T22:35:41.944Z,1.77
2023-05-06T22:38:08.674Z,1.77
2023-05-06T22:40:35.398Z,1.90
2023-05-06T22:43:02.099Z,2.30
2023-05-06T22:45:28.781Z,2.15
2023-05-06T22:47:56.068Z,2.08
2023-05-06T22:50:22.900Z,2.42
2023-05-06T22:52:49.593Z,2.60
2023-05-06T22:55:16.281Z,1.77
2023-05-06T22:57:42.994Z,2.60
2023-05-06T23:00:12.502Z,1.83
2023-05-06T23:02:39.894Z,1.30
2023-05-06T23:05:06.845Z,2.30
2023-05-06T23:07:33.718Z,2.30
2023-05-06T23:10:00.935Z,2.22
2023-05-06T23:12:32.168Z,1.80
2023-05-06T23:14:59.066Z,2.40
2023-05-06T23:17:25.840Z,1.90
2023-05-06T23:19:52.753Z,1.80
2023-05-06T23:22:19.406Z,1.77
2023-05-06T23:24:46.126Z,2.15
2023-05-06T23:27:12.775Z,1.45
2023-05-06T23:29:39.439Z,1.50
2023-05-06T23:32:06.454Z,1.42
2023-05-06T23:34:33.100Z,1.63
2023-05-06T23:36:59.897Z,1.80
2023-05-06T23:39:26.600Z,1.63
2023-05-06T23:41:53.280Z,1.42
2023-05-06T23:44:20.042Z,1.73
2023-05-06T23:46:46.822Z,1.60
2023-05-06T23:49:13.630Z,2.35
2023-05-06T23:51:40.277Z,2.35
2023-05-06T23:54:06.953Z,2.75
2023-05-06T23:56:33.646Z,2.85
2023-05-06T23:59:00.348Z,3.15
